createdAt,value
2023-05-02T00:00:00.905Z,2.55
2023-05-02T00:05:05.993Z,2.10
2023-05-02T00:10:17.079Z,2.65
2023-05-02T00:15:21.896Z,0.98
2023-05-02T00:20:26.578Z,2.33
2023-05-02T00:25:32.649Z,1.90
2023-05-02T00:30:41.102Z,2.88
2023-05-02T00:35:44.602Z,1.13
2023-05-02T00:40:51.593Z,1.77
2023-05-02T00:45:58.945Z,1.55
2023-05-02T00:51:06.070Z,2.05
2023-05-02T00:56:15.179Z,2.45
2023-05-02T01:01:29.910Z,1.73
2023-05-02T01:06:42.029Z,2.50
2023-05-02T01:11:51.503Z,2.50
2023-05-02T01:16:58.522Z,2.70
2023-05-02T01:22:04.912Z,0.90
2023-05-02T01:27:33.593Z,1.27
2023-05-02T01:32:54.635Z,2.38
2023-05-02T01:38:20.069Z,2.85
2023-05-02T01:43:39.232Z,1.38
2023-05-02T01:48:52.481Z,1.88
2023-05-02T01:59:27.451Z,2.85
2023-05-02T02:04:48.359Z,2.53
2023-05-02T02:09:59.406Z,2.83
2023-05-02T02:15:05.204Z,1.42
2023-05-02T02:20:12.201Z,1.95
2023-05-02T02:25:18.218Z,1.95
2023-05-02T02:30:27.449Z,2.40
2023-05-02T02:35:46.511Z,1.83
2023-05-02T02:40:59.151Z,1.45
2023-05-02T02:46:18.289Z,2.58
2023-05-02T02:51:31.933Z,2.70
2023-05-02T02:56:44.697Z,1.85
2023-05-02T03:02:13.619Z,1.35
2023-05-02T03:07:24.016Z,1.35
2023-05-02T03:12:30.505Z,1.92
2023-05-02T03:17:48.527Z,2.17
2023-05-02T03:22:54.619Z,1.92
2023-05-02T03:28:16.293Z,1.80
2023-05-02T03:33:21.143Z,2.40
2023-05-02T03:38:27.006Z,2.00
2023-05-02T03:43:41.578Z,1.08
2023-05-02T03:48:48.337Z,2.35
2023-05-02T03:53:55.739Z,2.53
2023-05-02T03:59:03.562Z,2.65
2023-05-02T04:04:28.937Z,3.05
2023-05-02T04:09:37.804Z,2.60
2023-05-02T04:14:43.643Z,1.23
2023-05-02T04:19:55.810Z,3.03
2023-05-02T04:25:06.787Z,2.90
2023-05-02T04:30:21.363Z,2.20
2023-05-02T04:35:33.268Z,2.72
2023-05-02T04:40:51.564Z,2.03
2023-05-02T04:45:55.212Z,2.45
2023-05-02T04:50:59.700Z,2.25
2023-05-02T04:56:25.954Z,2.50
2023-05-02T05:01:30.224Z,2.17
2023-05-02T05:06:37.482Z,2.63
2023-05-02T05:11:47.176Z,2.60
2023-05-02T05:16:52.673Z,2.55
2023-05-02T05:21:57.590Z,2.58
2023-05-02T05:27:04.215Z,1.55
2023-05-02T05:32:10.626Z,1.80
2023-05-02T05:37:19.159Z,3.28
2023-05-02T05:42:26.869Z,2.30
2023-05-02T05:47:32.549Z,2.90
2023-05-02T05:52:42.224Z,1.65
2023-05-02T05:57:50.457Z,2.35
2023-05-02T06:03:00.951Z,2.30
2023-05-02T06:08:05.276Z,2.55
2023-05-02T06:13:12.847Z,2.20
2023-05-02T06:18:17.338Z,2.13
2023-05-02T06:28:37.611Z,2.50
2023-05-02T06:33:43.926Z,2.53
2023-05-02T06:38:49.327Z,3.20
2023-05-02T06:44:00.407Z,3.00
2023-05-02T06:49:04.756Z,3.15
2023-05-02T06:54:11.430Z,3.50
2023-05-02T06:59:41.830Z,3.50
2023-05-02T07:04:49.062Z,3.28
2023-05-02T07:09:53.445Z,3.03
2023-05-02T07:15:02.479Z,3.35
2023-05-02T07:20:09.601Z,1.35
2023-05-02T07:25:18.952Z,3.13
2023-05-02T07:30:26.813Z,3.55
2023-05-02T07:35:38.814Z,5.07
2023-05-02T07:40:49.898Z,4.23
2023-05-02T07:45:54.772Z,5.15
2023-05-02T07:51:13.584Z,4.35
2023-05-02T07:56:18.163Z,4.40
2023-05-02T08:01:22.001Z,3.80
2023-05-02T08:06:36.793Z,3.88
2023-05-02T08:16:47.853Z,3.72
2023-05-02T08:22:01.485Z,4.30
2023-05-02T08:27:08.068Z,3.78
2023-05-02T08:32:12.465Z,4.10
2023-05-02T08:37:21.356Z,4.30
2023-05-02T08:42:27.431Z,3.65
2023-05-02T08:47:45.627Z,4.03
2023-05-02T08:52:51.907Z,4.93
2023-05-02T08:57:59.298Z,3.63
2023-05-02T09:03:11.935Z,4.75
2023-05-02T09:08:24.096Z,4.05
2023-05-02T09:13:37.903Z,4.78
2023-05-02T09:18:51.977Z,5.07
2023-05-02T09:24:04.327Z,4.25
2023-05-02T09:29:14.932Z,4.25
2023-05-02T09:34:28.356Z,4.70
2023-05-02T09:39:40.479Z,4.68
2023-05-02T09:44:48.054Z,5.60
2023-05-02T09:50:02.037Z,4.90
2023-05-02T09:55:23.441Z,4.65
2023-05-02T10:00:43.750Z,5.13
2023-05-02T10:05:48.487Z,4.90
2023-05-02T10:10:59.977Z,4.47
2023-05-02T10:16:15.835Z,3.20
2023-05-02T10:21:23.658Z,4.85
2023-05-02T10:26:28.825Z,5.20
2023-05-02T10:31:53.116Z,4.95
2023-05-02T10:37:02.364Z,5.07
2023-05-02T10:42:08.909Z,4.70
2023-05-02T10:47:34.993Z,4.50
2023-05-02T10:52:43.916Z,4.72
2023-05-02T10:58:08.821Z,5.38
2023-05-02T11:03:21.967Z,5.78
2023-05-02T11:08:37.562Z,6.20
2023-05-02T11:13:50.554Z,6.18
2023-05-02T11:19:01.332Z,5.70
2023-05-02T11:24:24.248Z,7.03
2023-05-02T11:34:56.370Z,7.32
2023-05-02T11:40:16.132Z,6.93
2023-05-02T11:45:34.254Z,6.82
2023-05-02T11:50:50.060Z,7.55
2023-05-02T11:55:55.854Z,7.05
2023-05-02T12:01:05.435Z,2.65
2023-05-02T12:06:19.868Z,7.03
2023-05-02T12:11:32.117Z,5.43
2023-05-02T12:16:42.517Z,6.43
2023-05-02T12:21:48.166Z,6.57
2023-05-02T12:27:12.139Z,6.85
2023-05-02T12:32:19.112Z,6.43
2023-05-02T12:37:30.635Z,6.88
2023-05-02T12:42:39.722Z,6.07
2023-05-02T12:47:48.524Z,6.07
2023-05-02T12:52:59.890Z,5.65
2023-05-02T12:58:07.299Z,5.55
2023-05-02T13:03:13.099Z,5.40
2023-05-02T13:08:18.656Z,6.03
2023-05-02T13:13:25.428Z,5.80
2023-05-02T13:18:30.271Z,5.18
2023-05-02T13:23:42.687Z,5.35
2023-05-02T13:28:54.065Z,4.68
2023-05-02T13:33:58.608Z,4.63
2023-05-02T13:39:13.955Z,4.40
2023-05-02T13:44:20.496Z,3.92
2023-05-02T13:49:29.201Z,4.40
2023-05-02T13:54:35.636Z,4.18
2023-05-02T13:59:40.254Z,4.82
2023-05-02T14:04:49.510Z,3.42
2023-05-02T14:09:58.938Z,2.90
2023-05-02T14:15:11.451Z,3.13
2023-05-02T14:20:17.873Z,2.97
2023-05-02T14:25:41.096Z,2.97
2023-05-02T14:30:45.775Z,4.32
2023-05-02T14:35:51.343Z,3.85
2023-05-02T14:40:57.422Z,3.55
2023-05-02T14:46:05.340Z,3.50
2023-05-02T14:51:11.589Z,3.22
2023-05-02T14:56:20.260Z,2.65
2023-05-02T15:01:25.164Z,3.47
2023-05-02T15:06:35.896Z,2.83
2023-05-02T15:11:43.159Z,2.58
2023-05-02T15:16:49.227Z,3.33
2023-05-02T15:21:58.331Z,2.05
2023-05-02T15:27:20.551Z,1.60
2023-05-02T15:32:32.133Z,2.00
2023-05-02T15:37:37.799Z,1.50
2023-05-02T15:42:50.256Z,1.52
2023-05-02T15:48:01.374Z,2.00
2023-05-02T15:53:06.984Z,2.45
2023-05-02T15:58:16.322Z,2.22
2023-05-02T16:03:20.823Z,2.42
2023-05-02T16:08:26.013Z,1.60
2023-05-02T16:18:36.054Z,2.67
2023-05-02T16:23:52.734Z,3.13
2023-05-02T16:29:03.838Z,2.83
2023-05-02T16:34:36.450Z,3.55
2023-05-02T16:39:49.567Z,3.50
2023-05-02T16:44:58.766Z,3.85
2023-05-02T16:50:03.987Z,4.32
2023-05-02T16:55:18.685Z,5.93
2023-05-02T17:05:27.864Z,5.40
2023-05-02T17:16:01.039Z,4.32
2023-05-02T17:21:04.048Z,3.80
2023-05-02T17:26:14.482Z,3.17
2023-05-02T17:31:19.316Z,3.70
2023-05-02T17:36:21.841Z,4.20
2023-05-02T17:41:24.391Z,3.40
2023-05-02T17:46:28.340Z,4.13
2023-05-02T17:56:37.087Z,2.77
2023-05-02T18:07:07.855Z,2.72
2023-05-02T18:12:10.829Z,3.45
2023-05-02T18:17:20.533Z,2.80
2023-05-02T18:22:23.215Z,3.25
2023-05-02T18:27:26.021Z,2.00
2023-05-02T18:32:31.879Z,2.67
2023-05-02T18:37:35.611Z,2.97
2023-05-02T18:42:38.616Z,3.10
2023-05-02T18:47:42.920Z,0.95
2023-05-02T18:52:45.521Z,3.00
2023-05-02T18:57:48.551Z,3.88
2023-05-02T19:02:54.486Z,3.73
2023-05-02T19:07:57.157Z,3.97
2023-05-02T19:13:00.097Z,3.38
2023-05-02T19:18:04.314Z,3.78
2023-05-02T19:23:18.892Z,3.88
2023-05-02T19:28:22.917Z,4.88
2023-05-02T19:33:26.848Z,4.57
2023-05-02T19:38:29.778Z,4.72
2023-05-02T19:43:32.954Z,4.82
2023-05-02T19:48:37.016Z,4.10
2023-05-02T19:58:42.632Z,5.05
2023-05-02T20:04:05.092Z,4.70
2023-05-02T20:09:34.735Z,4.57
2023-05-02T20:14:44.246Z,4.53
2023-05-02T20:20:08.428Z,4.75
2023-05-02T20:25:37.116Z,5.40
2023-05-02T20:30:42.764Z,5.57
2023-05-02T20:36:00.020Z,5.75
2023-05-02T20:41:10.844Z,5.35
2023-05-02T20:46:16.671Z,5.50
2023-05-02T20:51:25.180Z,5.45
2023-05-02T20:56:30.380Z,5.65
2023-05-02T21:01:38.421Z,5.55
2023-05-02T21:07:06.731Z,5.45
2023-05-02T21:12:13.147Z,6.38
2023-05-02T21:17:17.133Z,5.95
2023-05-02T21:27:30.543Z,5.57
2023-05-02T21:32:34.114Z,6.47
2023-05-02T21:49:09.684Z,6.45
2023-05-02T21:54:23.473Z,6.60
2023-05-02T21:59:28.071Z,5.65
2023-05-02T22:04:48.593Z,5.68
2023-05-02T22:09:55.220Z,6.97
2023-05-02T22:14:58.664Z,6.72
2023-05-02T22:20:04.299Z,7.13
2023-05-02T22:25:22.771Z,6.88
2023-05-02T22:30:28.130Z,7.95
2023-05-02T22:35:31.145Z,6.43
2023-05-02T22:40:34.681Z,6.15
2023-05-02T22:45:42.418Z,6.57
2023-05-02T22:50:49.616Z,6.97
2023-05-02T22:55:55.025Z,6.80
2023-05-02T23:01:03.759Z,6.32
2023-05-02T23:06:08.190Z,6.22
2023-05-02T23:11:12.834Z,6.38
2023-05-02T23:21:32.504Z,5.45
2023-05-02T23:26:38.150Z,5.78
2023-05-02T23:31:41.865Z,7.00
2023-05-02T23:36:48.649Z,5.90
2023-05-02T23:41:58.458Z,6.90
2023-05-02T23:47:05.379Z,7.10
2023-05-02T23:52:10.927Z,6.95
2023-05-02T23:57:15.762Z,6.47
